ELDO2: Baron Fork, Eldon, OK

Data processed at Sat Jan 12 2019 23:32


All information presented herein is the property of the government of the United States of America and may be revised or deleted at any time without prior notice.
Dissemination of this information without the expressed written consent of the Public Affairs Office, Tulsa District U.S. Army Corps of Engineers is strictly prohibited.
These data are gathered electronically and, as presented, have not undergone any form of quality control. These data are not guaranteed to be valid or correct.
Go to home page.
Go to station list.
Go to home page.

Upstream stations:

Downstream station:
Previous Day
Next Day
Current Day
    
SHEF ID:       ELDO2     Baron Fork at Eldon, OK
STATION TYPE:  

               PRECIP     STAGE  RIV-FLOW  BAT-LOAD
                   in        ft       cfs      volt
              Ccp-Rev   Ccp-Rev   Ccp-Rev   Ccp-Rev
(US/Central)
01/12 00:00      0.09      6.65       465     12.17
01/12 01:00      0.07      6.67       475     12.25
01/12 02:00      0.06      6.68       480     12.17
01/12 03:00      0.09      6.71       495     12.17
01/12 04:00      0.02      6.71       495     12.17
01/12 05:00      0.00      6.74       511     12.17
01/12 06:00      0.00      6.75       516     12.17
01/12 07:00      0.00      6.79       537     12.17
01/12 08:00      0.00      6.86       576     12.17
01/12 09:00      0.00      6.90       599     12.17
01/12 10:00      0.00      6.96       634     12.25
01/12 11:00      0.01      7.02       671     12.25
01/12 12:00      0.01      7.08       709     12.73
01/12 13:00      0.00      7.15       755     13.13
01/12 14:00      0.01      7.17       769     13.05
01/12 15:00      0.00      7.27       841     12.97
01/12 16:00      0.00      7.40       956     12.89
01/12 17:00      0.00      7.53      1080     12.73
01/12 18:00      0.00      7.62      1171     12.49
01/12 19:00      0.00      7.67      1224     12.41
01/12 20:00      0.00      7.69      1245     12.41
01/12 21:00      0.00      7.68      1235     12.33
01/12 22:00      0.00      7.66      1214     12.33
01/12 23:00      ----      ----      ----      ----